Capewater — PBPQ — position and weather

sailwx.info

Track history (hours):
 
Tides and Currents Weather Stations Pressure Air Temp Water Temp Dewpoint Dewpoint Depression Visibility Wind Speed Wind Dir Waves Ship Positions

Capewater

Last reported at 2015-Sep-01 05:31 UTC. Time now 2015-Sep-01 05:58 UTC.
Position N 49°30' W 000°05'.

Length 100 m; draft 6.7 m.

Type: Tanker. MMSI: 246346000.

Date/timePositionNaut miles runAvg speedWind from/ knotsBaromVisibWave heightAir tempDewpointWater temp
2015-Sep-01 05:31N 49°30' W 000°05'0 0.0
2015-Sep-01 04:31N 49°30' W 000°05'0 0.0
2015-Sep-01 03:31N 49°30' W 000°05'0 0.0
2015-Sep-01 02:31N 49°30' W 000°05'0 0.0
2015-Sep-01 01:31N 49°30' W 000°05'0 0.0
2015-Sep-01 00:31N 49°30' W 000°05'0 0.1
2015-Aug-31 23:31N 49°30' W 000°05'0 0.0
2015-Aug-31 22:31N 49°30' W 000°05'0 0.0
2015-Aug-31 21:31N 49°30' W 000°05'0 0.1
2015-Aug-31 20:31N 49°30' W 000°05'0 0.1
2015-Aug-31 19:31N 49°30' W 000°05'0 0.1
2015-Aug-31 18:31N 49°30' W 000°05'0 0.0
2015-Aug-31 17:31N 49°30' W 000°05'0 0.0
2015-Aug-31 16:31N 49°30' W 000°05'1 1.3
2015-Aug-31 15:34N 49°30' W 000°07'1110.7
2015-Aug-31 14:34N 49°33' W 000°22'1211.7
2015-Aug-31 13:34N 49°45' W 000°22'5711.4
2015-Aug-31 08:33N 50°33' E 000°24'1312.9
2015-Aug-31 07:33N 50°40' E 000°41'1515.2
2015-Aug-31 06:33N 50°49' E 001°00'1615.6
2015-Aug-31 05:33N 50°60' E 001°19'1414.4
2015-Aug-31 04:34N 51°08' E 001°37'1212.3
2015-Aug-31 03:33N 51°18' E 001°50'1211.5
2015-Aug-31 02:33N 51°27' E 001°60'1111.4
2015-Aug-31 01:33N 51°36' E 002°12'4113.4
2015-Aug-30 22:28N 52°08' E 002°55'4715.1
2015-Aug-30 19:23N 52°45' E 003°41'2713.2
2015-Aug-30 17:20N 53°04' E 004°12'1012.3
2015-Aug-30 16:33N 53°11' E 004°24'1212.2
2015-Aug-30 15:33N 53°22' E 004°32'1312.9
2015-Aug-30 14:33N 53°31' E 004°48'1515.0
2015-Aug-30 13:33N 53°37' E 005°11'1515.1
2015-Aug-30 12:33N 53°41' E 005°35'1514.6
2015-Aug-30 11:33N 53°45' E 005°59'1513.8
2015-Aug-30 10:26N 53°49' E 006°24'1112.8
2015-Aug-30 09:33N 53°53' E 006°42'1312.5
2015-Aug-30 08:33N 53°56' E 007°03'1212.5
2015-Aug-30 07:33N 53°59' E 007°24'1312.9
2015-Aug-30 06:33N 54°01' E 007°45'1413.8
2015-Aug-30 05:33N 54°01' E 008°09'1514.7
2015-Aug-30 04:34N 53°58' E 008°33'1514.9
2015-Aug-30 03:34N 53°51' E 008°55'8 8.3
2015-Aug-30 02:33N 53°54' E 009°09'1 0.6
2015-Aug-30 01:33N 53°54' E 009°09'1 0.6
2015-Aug-30 00:14N 53°55' E 009°10'0 0.0
2015-Aug-29 23:26N 53°55' E 009°10'0 0.0
2015-Aug-29 22:32N 53°55' E 009°10'0 0.0
2015-Aug-29 21:26N 53°55' E 009°10'0 0.0
2015-Aug-29 20:29N 53°55' E 009°10'0 0.0
2015-Aug-29 19:32N 53°55' E 009°10'0 0.0
2015-Aug-29 18:17N 53°55' E 009°10'0 0.0
2015-Aug-29 17:26N 53°55' E 009°10'0 0.0
2015-Aug-29 16:32N 53°55' E 009°10'0 0.0
2015-Aug-29 15:32N 53°55' E 009°10'0 0.0
2015-Aug-29 14:26N 53°55' E 009°10'0 0.0
2015-Aug-29 13:17N 53°55' E 009°10'0 0.0
2015-Aug-29 12:29N 53°55' E 009°10'0 0.0
2015-Aug-29 11:29N 53°55' E 009°10'1 1.5
2015-Aug-29 10:31N 53°53' E 009°09'5 5.5
2015-Aug-29 09:33N 53°51' E 009°01'9 9.0
2015-Aug-29 08:33N 53°51' E 008°45'8 8.4
2015-Aug-29 07:33N 53°57' E 008°36'9 9.3
2015-Aug-29 06:33N 53°59' E 008°21'9 8.7
2015-Aug-29 05:34N 53°59' E 008°06'4 3.4
2015-Aug-29 04:31N 54°03' E 008°08'0 0.0
2015-Aug-29 03:31N 54°03' E 008°08'0 0.0
2015-Aug-29 02:31N 54°03' E 008°08'0 0.0
2015-Aug-29 01:31N 54°03' E 008°08'0 0.1
2015-Aug-29 00:31N 54°03' E 008°08'0 0.1
2015-Aug-28 23:31N 54°03' E 008°08'0 0.0
2015-Aug-28 22:31N 54°03' E 008°08'0 0.0
2015-Aug-28 21:31N 54°03' E 008°08'0 0.0
2015-Aug-28 20:31N 54°03' E 008°08'0 0.0
2015-Aug-28 19:28N 54°03' E 008°08'0 0.0
2015-Aug-28 18:31N 54°03' E 008°08'0 0.0
2015-Aug-28 17:31N 54°03' E 008°08'0 0.0
2015-Aug-28 16:31N 54°03' E 008°08'0 0.1
2015-Aug-28 15:31N 54°03' E 008°08'0 0.0
2015-Aug-28 14:31N 54°03' E 008°08'0 0.0
2015-Aug-28 13:28N 54°03' E 008°08'0 0.0
2015-Aug-28 12:31N 54°03' E 008°08'0 0.0
2015-Aug-28 11:31N 54°03' E 008°08'0 0.0
2015-Aug-28 10:25N 54°03' E 008°08'0 0.0
2015-Aug-28 09:31N 54°03' E 008°08'0 0.0
2015-Aug-28 08:28N 54°03' E 008°08'0 0.0
2015-Aug-28 07:31N 54°03' E 008°08'0 0.0
2015-Aug-28 06:19N 54°03' E 008°08'0 0.0
2015-Aug-28 05:31N 54°03' E 008°08'0 0.0
2015-Aug-28 04:31N 54°03' E 008°08'0 0.0
2015-Aug-28 03:31N 54°03' E 008°08'0 0.0
2015-Aug-28 02:31N 54°03' E 008°08'0 0.0
2015-Aug-28 01:31N 54°03' E 008°08'0 0.0
2015-Aug-28 00:31N 54°03' E 008°08'0 0.0
2015-Aug-27 23:28N 54°03' E 008°08'0 0.0
2015-Aug-27 22:34N 54°03' E 008°08'0 0.0
2015-Aug-27 21:31N 54°03' E 008°08'0 0.0
2015-Aug-27 20:31N 54°03' E 008°08'0 0.0
2015-Aug-27 19:31N 54°03' E 008°08'0 0.0
2015-Aug-27 18:31N 54°03' E 008°08'0 0.0
2015-Aug-27 17:31N 54°03' E 008°08'0 0.0
2015-Aug-27 16:28N 54°03' E 008°08'0 0.0
2015-Aug-27 15:31N 54°03' E 008°08'0 0.0
2015-Aug-27 14:31N 54°03' E 008°08'0 0.0
2015-Aug-27 13:31N 54°03' E 008°08'0 0.0
2015-Aug-27 12:30N 54°03' E 008°08'0 0.0
2015-Aug-27 11:30N 54°03' E 008°08'0 0.1
2015-Aug-27 10:25N 54°03' E 008°08'0 0.0
2015-Aug-27 09:31N 54°03' E 008°08'0 0.0
2015-Aug-27 08:34N 54°03' E 008°08'0 0.0
2015-Aug-27 07:34N 54°03' E 008°08'0 0.0
2015-Aug-27 06:30N 54°03' E 008°08'2 1.9
2015-Aug-27 05:33N 54°02' E 008°05'1313.0
2015-Aug-27 04:33N 53°57' E 007°45'1312.9
2015-Aug-27 03:32N 53°54' E 007°23'1312.9
2015-Aug-27 02:33N 53°51' E 007°02'1212.3
2015-Aug-27 01:32N 53°48' E 006°41'1212.0
2015-Aug-27 00:33N 53°45' E 006°22'1211.9
2015-Aug-26 23:33N 53°41' E 006°03'1212.0
2015-Aug-26 22:33N 53°38' E 005°44'1111.4
2015-Aug-26 21:33N 53°34' E 005°25'1010.0
2015-Aug-26 20:33N 53°31' E 005°10'1010.4
2015-Aug-26 19:33N 53°27' E 004°53'10 9.8
2015-Aug-26 18:33N 53°21' E 004°41'1110.7
2015-Aug-26 17:33N 53°11' E 004°33'1110.6
2015-Aug-26 16:33N 53°02' E 004°24'1110.9
2015-Aug-26 15:33N 52°52' E 004°16'1111.4
2015-Aug-26 14:33N 52°43' E 004°05'1414.1
2015-Aug-26 13:33N 52°33' E 003°48'1414.5
2015-Aug-26 12:33N 52°21' E 003°36'1914.8
2015-Aug-26 11:17N 52°03' E 003°24'1115.5
2015-Aug-26 10:33N 51°52' E 003°21'6 1.9
2015-Aug-26 07:29N 51°46' E 003°20'0 0.0
2015-Aug-26 02:23N 51°46' E 003°20'0 0.0
2015-Aug-25 03:14N 51°46' E 003°20'0 0.0
2015-Aug-25 02:20N 51°46' E 003°20'0 0.0
2015-Aug-24 22:05N 51°46' E 003°20'0 0.0
2015-Aug-24 21:20N 51°46' E 003°20'0 0.0
2015-Aug-23 21:14N 51°46' E 003°20'0 0.0
2015-Aug-23 06:26N 51°46' E 003°20'0 0.0
2015-Aug-23 05:32N 51°46' E 003°20'0 0.1
2015-Aug-23 04:29N 51°46' E 003°20'0 0.0
2015-Aug-23 03:32N 51°46' E 003°20'0 0.0
2015-Aug-23 02:29N 51°46' E 003°20'0 0.0
2015-Aug-23 01:32N 51°46' E 003°20'0 0.0
2015-Aug-22 09:32N 51°46' E 003°20'1010.5
2015-Aug-22 08:34N 51°36' E 003°23'1313.1
2015-Aug-22 07:33N 51°26' E 003°37'1010.0
2015-Aug-22 06:33N 51°20' E 003°49'3 3.0
2015-Aug-22 05:33N 51°17' E 003°50'  
Track history (hours):
 
Tides and Currents Weather Stations Pressure Air Temp Water Temp Dewpoint Dewpoint Depression Visibility Wind Speed Wind Dir Waves Ship Positions

Capewater

Last reported at 2015-Sep-01 05:31 UTC. Time now 2015-Sep-01 05:58 UTC.
Position N 49°30' W 000°05'.

Length 100 m; draft 6.7 m.

Type: Tanker. MMSI: 246346000.

Date/timePositionNaut miles runAvg speedWind from/ knotsBaromVisibWave heightAir tempDewpointWater temp
2015-Sep-01 05:31N 49°30' W 000°05'0 0.0
2015-Sep-01 04:31N 49°30' W 000°05'0 0.0
2015-Sep-01 03:31N 49°30' W 000°05'0 0.0
2015-Sep-01 02:31N 49°30' W 000°05'0 0.0
2015-Sep-01 01:31N 49°30' W 000°05'0 0.0
2015-Sep-01 00:31N 49°30' W 000°05'0 0.1
2015-Aug-31 23:31N 49°30' W 000°05'0 0.0
2015-Aug-31 22:31N 49°30' W 000°05'0 0.0
2015-Aug-31 21:31N 49°30' W 000°05'0 0.1
2015-Aug-31 20:31N 49°30' W 000°05'0 0.1
2015-Aug-31 19:31N 49°30' W 000°05'0 0.1
2015-Aug-31 18:31N 49°30' W 000°05'0 0.0
2015-Aug-31 17:31N 49°30' W 000°05'0 0.0
2015-Aug-31 16:31N 49°30' W 000°05'1 1.3
2015-Aug-31 15:34N 49°30' W 000°07'1110.7
2015-Aug-31 14:34N 49°33' W 000°22'1211.7
2015-Aug-31 13:34N 49°45' W 000°22'5711.4
2015-Aug-31 08:33N 50°33' E 000°24'1312.9
2015-Aug-31 07:33N 50°40' E 000°41'1515.2
2015-Aug-31 06:33N 50°49' E 001°00'1615.6
2015-Aug-31 05:33N 50°60' E 001°19'1414.4
2015-Aug-31 04:34N 51°08' E 001°37'1212.3
2015-Aug-31 03:33N 51°18' E 001°50'1211.5
2015-Aug-31 02:33N 51°27' E 001°60'1111.4
2015-Aug-31 01:33N 51°36' E 002°12'4113.4
2015-Aug-30 22:28N 52°08' E 002°55'4715.1
2015-Aug-30 19:23N 52°45' E 003°41'2713.2
2015-Aug-30 17:20N 53°04' E 004°12'1012.3
2015-Aug-30 16:33N 53°11' E 004°24'1212.2
2015-Aug-30 15:33N 53°22' E 004°32'1312.9
2015-Aug-30 14:33N 53°31' E 004°48'1515.0
2015-Aug-30 13:33N 53°37' E 005°11'1515.1
2015-Aug-30 12:33N 53°41' E 005°35'1514.6
2015-Aug-30 11:33N 53°45' E 005°59'1513.8
2015-Aug-30 10:26N 53°49' E 006°24'1112.8
2015-Aug-30 09:33N 53°53' E 006°42'1312.5
2015-Aug-30 08:33N 53°56' E 007°03'1212.5
2015-Aug-30 07:33N 53°59' E 007°24'1312.9
2015-Aug-30 06:33N 54°01' E 007°45'1413.8
2015-Aug-30 05:33N 54°01' E 008°09'1514.7
2015-Aug-30 04:34N 53°58' E 008°33'1514.9
2015-Aug-30 03:34N 53°51' E 008°55'8 8.3
2015-Aug-30 02:33N 53°54' E 009°09'1 0.6
2015-Aug-30 01:33N 53°54' E 009°09'1 0.6
2015-Aug-30 00:14N 53°55' E 009°10'0 0.0
2015-Aug-29 23:26N 53°55' E 009°10'0 0.0
2015-Aug-29 22:32N 53°55' E 009°10'0 0.0
2015-Aug-29 21:26N 53°55' E 009°10'0 0.0
2015-Aug-29 20:29N 53°55' E 009°10'0 0.0
2015-Aug-29 19:32N 53°55' E 009°10'0 0.0
2015-Aug-29 18:17N 53°55' E 009°10'0 0.0
2015-Aug-29 17:26N 53°55' E 009°10'0 0.0
2015-Aug-29 16:32N 53°55' E 009°10'0 0.0
2015-Aug-29 15:32N 53°55' E 009°10'0 0.0
2015-Aug-29 14:26N 53°55' E 009°10'0 0.0
2015-Aug-29 13:17N 53°55' E 009°10'0 0.0
2015-Aug-29 12:29N 53°55' E 009°10'0 0.0
2015-Aug-29 11:29N 53°55' E 009°10'1 1.5
2015-Aug-29 10:31N 53°53' E 009°09'5 5.5
2015-Aug-29 09:33N 53°51' E 009°01'9 9.0
2015-Aug-29 08:33N 53°51' E 008°45'8 8.4
2015-Aug-29 07:33N 53°57' E 008°36'9 9.3
2015-Aug-29 06:33N 53°59' E 008°21'9 8.7
2015-Aug-29 05:34N 53°59' E 008°06'4 3.4
2015-Aug-29 04:31N 54°03' E 008°08'0 0.0
2015-Aug-29 03:31N 54°03' E 008°08'0 0.0
2015-Aug-29 02:31N 54°03' E 008°08'0 0.0
2015-Aug-29 01:31N 54°03' E 008°08'0 0.1
2015-Aug-29 00:31N 54°03' E 008°08'0 0.1
2015-Aug-28 23:31N 54°03' E 008°08'0 0.0
2015-Aug-28 22:31N 54°03' E 008°08'0 0.0
2015-Aug-28 21:31N 54°03' E 008°08'0 0.0
2015-Aug-28 20:31N 54°03' E 008°08'0 0.0
2015-Aug-28 19:28N 54°03' E 008°08'0 0.0
2015-Aug-28 18:31N 54°03' E 008°08'0 0.0
2015-Aug-28 17:31N 54°03' E 008°08'0 0.0
2015-Aug-28 16:31N 54°03' E 008°08'0 0.1
2015-Aug-28 15:31N 54°03' E 008°08'0 0.0
2015-Aug-28 14:31N 54°03' E 008°08'0 0.0
2015-Aug-28 13:28N 54°03' E 008°08'0 0.0
2015-Aug-28 12:31N 54°03' E 008°08'0 0.0
2015-Aug-28 11:31N 54°03' E 008°08'0 0.0
2015-Aug-28 10:25N 54°03' E 008°08'0 0.0
2015-Aug-28 09:31N 54°03' E 008°08'0 0.0
2015-Aug-28 08:28N 54°03' E 008°08'0 0.0
2015-Aug-28 07:31N 54°03' E 008°08'0 0.0
2015-Aug-28 06:19N 54°03' E 008°08'0 0.0
2015-Aug-28 05:31N 54°03' E 008°08'0 0.0
2015-Aug-28 04:31N 54°03' E 008°08'0 0.0
2015-Aug-28 03:31N 54°03' E 008°08'0 0.0
2015-Aug-28 02:31N 54°03' E 008°08'0 0.0
2015-Aug-28 01:31N 54°03' E 008°08'0 0.0
2015-Aug-28 00:31N 54°03' E 008°08'0 0.0
2015-Aug-27 23:28N 54°03' E 008°08'0 0.0
2015-Aug-27 22:34N 54°03' E 008°08'0 0.0
2015-Aug-27 21:31N 54°03' E 008°08'0 0.0
2015-Aug-27 20:31N 54°03' E 008°08'0 0.0
2015-Aug-27 19:31N 54°03' E 008°08'0 0.0
2015-Aug-27 18:31N 54°03' E 008°08'0 0.0
2015-Aug-27 17:31N 54°03' E 008°08'0 0.0
2015-Aug-27 16:28N 54°03' E 008°08'0 0.0
2015-Aug-27 15:31N 54°03' E 008°08'0 0.0
2015-Aug-27 14:31N 54°03' E 008°08'0 0.0
2015-Aug-27 13:31N 54°03' E 008°08'0 0.0
2015-Aug-27 12:30N 54°03' E 008°08'0 0.0
2015-Aug-27 11:30N 54°03' E 008°08'0 0.1
2015-Aug-27 10:25N 54°03' E 008°08'0 0.0
2015-Aug-27 09:31N 54°03' E 008°08'0 0.0
2015-Aug-27 08:34N 54°03' E 008°08'0 0.0
2015-Aug-27 07:34N 54°03' E 008°08'0 0.0
2015-Aug-27 06:30N 54°03' E 008°08'2 1.9
2015-Aug-27 05:33N 54°02' E 008°05'1313.0
2015-Aug-27 04:33N 53°57' E 007°45'1312.9
2015-Aug-27 03:32N 53°54' E 007°23'1312.9
2015-Aug-27 02:33N 53°51' E 007°02'1212.3
2015-Aug-27 01:32N 53°48' E 006°41'1212.0
2015-Aug-27 00:33N 53°45' E 006°22'1211.9
2015-Aug-26 23:33N 53°41' E 006°03'1212.0
2015-Aug-26 22:33N 53°38' E 005°44'1111.4
2015-Aug-26 21:33N 53°34' E 005°25'1010.0
2015-Aug-26 20:33N 53°31' E 005°10'1010.4
2015-Aug-26 19:33N 53°27' E 004°53'10 9.8
2015-Aug-26 18:33N 53°21' E 004°41'1110.7
2015-Aug-26 17:33N 53°11' E 004°33'1110.6
2015-Aug-26 16:33N 53°02' E 004°24'1110.9
2015-Aug-26 15:33N 52°52' E 004°16'1111.4
2015-Aug-26 14:33N 52°43' E 004°05'1414.1
2015-Aug-26 13:33N 52°33' E 003°48'1414.5
2015-Aug-26 12:33N 52°21' E 003°36'1914.8
2015-Aug-26 11:17N 52°03' E 003°24'1115.5
2015-Aug-26 10:33N 51°52' E 003°21'6 1.9
2015-Aug-26 07:29N 51°46' E 003°20'0 0.0
2015-Aug-26 02:23N 51°46' E 003°20'0 0.0
2015-Aug-25 03:14N 51°46' E 003°20'0 0.0
2015-Aug-25 02:20N 51°46' E 003°20'0 0.0
2015-Aug-24 22:05N 51°46' E 003°20'0 0.0
2015-Aug-24 21:20N 51°46' E 003°20'0 0.0
2015-Aug-23 21:14N 51°46' E 003°20'0 0.0
2015-Aug-23 06:26N 51°46' E 003°20'0 0.0
2015-Aug-23 05:32N 51°46' E 003°20'0 0.1
2015-Aug-23 04:29N 51°46' E 003°20'0 0.0
2015-Aug-23 03:32N 51°46' E 003°20'0 0.0
2015-Aug-23 02:29N 51°46' E 003°20'0 0.0
2015-Aug-23 01:32N 51°46' E 003°20'0 0.0
2015-Aug-22 09:32N 51°46' E 003°20'1010.5
2015-Aug-22 08:34N 51°36' E 003°23'1313.1
2015-Aug-22 07:33N 51°26' E 003°37'1010.0
2015-Aug-22 06:33N 51°20' E 003°49'3 3.0
2015-Aug-22 05:33N 51°17' E 003°50'  

Dump ship's entire track history